createdAt,value
2022-08-14T00:00:00.176Z,20.27
2022-08-14T00:01:00.155Z,20.22
2022-08-14T00:02:01.244Z,20.17
2022-08-14T00:03:00.188Z,20.10
2022-08-14T00:04:00.227Z,20.07
2022-08-14T00:05:00.337Z,20.07
2022-08-14T00:06:00.491Z,20.00
2022-08-14T00:07:00.329Z,19.97
2022-08-14T00:08:00.389Z,19.94
2022-08-14T00:09:00.429Z,19.90
2022-08-14T00:10:49.244Z,19.89
2022-08-14T00:11:00.541Z,19.93
2022-08-14T00:12:00.521Z,19.96
2022-08-14T00:13:00.818Z,19.94
2022-08-14T00:14:01.576Z,19.90
2022-08-14T00:15:00.651Z,19.90
2022-08-14T00:16:00.634Z,19.89
2022-08-14T00:17:01.321Z,19.89
2022-08-14T00:18:00.763Z,19.92
2022-08-14T00:19:06.168Z,19.93
2022-08-14T00:20:00.855Z,19.90
2022-08-14T00:21:00.923Z,19.87
2022-08-14T00:22:00.915Z,19.85
2022-08-14T00:23:11.965Z,19.79
2022-08-14T00:24:01.548Z,19.79
2022-08-14T00:25:01.025Z,19.81
2022-08-14T00:26:06.683Z,19.78
2022-08-14T00:27:02.072Z,19.77
2022-08-14T00:28:01.168Z,19.75
2022-08-14T00:29:01.186Z,19.72
2022-08-14T00:30:01.218Z,19.74
2022-08-14T00:31:01.893Z,19.78
2022-08-14T00:32:01.248Z,19.81
2022-08-14T00:33:01.846Z,19.82
2022-08-14T00:34:35.482Z,19.84
2022-08-14T00:35:01.349Z,19.81
2022-08-14T00:36:37.319Z,19.81
2022-08-14T00:37:01.868Z,19.81
2022-08-14T00:38:01.409Z,19.79
2022-08-14T00:39:01.462Z,19.78
2022-08-14T00:40:01.589Z,19.75
2022-08-14T00:41:01.553Z,19.74
2022-08-14T00:42:02.238Z,19.67
2022-08-14T00:43:01.823Z,19.63
2022-08-14T00:44:01.662Z,19.62
2022-08-14T00:45:01.722Z,19.60
2022-08-14T00:46:01.764Z,19.59
2022-08-14T00:47:02.479Z,19.59
2022-08-14T00:48:01.763Z,19.62
2022-08-14T00:49:02.065Z,19.62
2022-08-14T00:50:01.814Z,19.59
2022-08-14T00:51:01.874Z,19.59
2022-08-14T00:52:01.915Z,19.57
2022-08-14T00:53:01.925Z,19.60
2022-08-14T00:54:01.977Z,19.60
2022-08-14T00:55:02.027Z,19.62
2022-08-14T00:56:02.066Z,19.62
2022-08-14T00:57:02.106Z,19.63
2022-08-14T00:58:02.137Z,19.64
2022-08-14T00:59:02.169Z,19.64
2022-08-14T01:00:02.245Z,19.66
2022-08-14T01:01:02.383Z,19.64
2022-08-14T01:02:02.287Z,19.64
2022-08-14T01:03:02.329Z,19.66
2022-08-14T01:04:02.367Z,19.64
2022-08-14T01:05:02.390Z,19.63
2022-08-14T01:06:02.429Z,19.62
2022-08-14T01:07:04.935Z,19.56
2022-08-14T01:08:02.500Z,19.48
2022-08-14T01:09:02.500Z,19.47
2022-08-14T01:10:02.551Z,19.49
2022-08-14T01:11:02.741Z,19.49
2022-08-14T01:12:03.608Z,19.49
2022-08-14T01:13:02.665Z,19.52
2022-08-14T01:14:04.951Z,19.49
2022-08-14T01:15:02.749Z,19.52
2022-08-14T01:16:03.138Z,19.53
2022-08-14T01:17:02.792Z,19.55
2022-08-14T01:18:02.773Z,19.57
2022-08-14T01:19:02.836Z,19.60
2022-08-14T01:20:02.874Z,19.62
2022-08-14T01:21:02.935Z,19.63
2022-08-14T01:22:02.998Z,19.66
2022-08-14T01:23:03.024Z,19.66
2022-08-14T01:24:03.046Z,19.66
2022-08-14T01:25:03.120Z,19.66
2022-08-14T01:26:04.537Z,19.71
2022-08-14T01:27:03.115Z,19.72
2022-08-14T01:28:03.158Z,19.75
2022-08-14T01:29:03.208Z,19.77
2022-08-14T01:30:04.739Z,19.77
2022-08-14T01:31:03.316Z,19.78
2022-08-14T01:32:03.338Z,19.79
2022-08-14T01:33:03.408Z,19.77
2022-08-14T01:35:17.300Z,19.77
2022-08-14T01:35:21.071Z,19.77
2022-08-14T01:36:07.455Z,19.78
2022-08-14T01:37:03.498Z,19.78
2022-08-14T01:38:03.563Z,19.79
2022-08-14T01:39:03.551Z,19.79
2022-08-14T01:40:03.610Z,19.79
2022-08-14T01:41:03.611Z,19.81
2022-08-14T01:42:03.642Z,19.79
2022-08-14T01:43:03.700Z,19.84
2022-08-14T01:44:03.752Z,19.87
2022-08-14T01:45:03.812Z,19.89
2022-08-14T01:46:06.833Z,19.90
2022-08-14T01:47:05.901Z,19.93
2022-08-14T01:48:03.959Z,19.93
2022-08-14T01:49:03.926Z,19.93
2022-08-14T01:50:03.954Z,19.94
2022-08-14T01:51:04.005Z,19.93
2022-08-14T01:52:08.980Z,19.90
2022-08-14T01:53:04.312Z,19.90
2022-08-14T01:54:04.164Z,19.89
2022-08-14T01:55:04.176Z,19.87
2022-08-14T01:56:04.166Z,19.85
2022-08-14T01:57:04.227Z,19.82
2022-08-14T01:58:19.924Z,19.82
2022-08-14T01:59:04.227Z,19.84
2022-08-14T02:00:04.227Z,19.84
2022-08-14T02:01:04.281Z,19.84
2022-08-14T02:02:04.295Z,19.82
2022-08-14T02:03:06.793Z,19.82
2022-08-14T02:04:04.300Z,19.82
2022-08-14T02:05:04.337Z,19.81
2022-08-14T02:06:33.324Z,19.79
2022-08-14T02:07:05.525Z,19.78
2022-08-14T02:08:09.625Z,19.75
2022-08-14T02:09:18.962Z,19.75
2022-08-14T02:10:04.451Z,19.75
2022-08-14T02:11:04.472Z,19.71
2022-08-14T02:12:04.520Z,19.70
2022-08-14T02:13:04.533Z,19.71
2022-08-14T02:14:07.339Z,19.71
2022-08-14T02:15:04.602Z,19.72
2022-08-14T02:16:21.781Z,19.74
2022-08-14T02:17:04.614Z,19.74
2022-08-14T02:18:04.673Z,19.74
2022-08-14T02:19:05.284Z,19.75
2022-08-14T02:20:04.765Z,19.74
2022-08-14T02:21:04.827Z,19.72
2022-08-14T02:22:04.876Z,19.71
2022-08-14T02:23:04.928Z,19.70
2022-08-14T02:24:04.926Z,19.67
2022-08-14T02:25:04.967Z,19.67
2022-08-14T02:26:24.273Z,19.66
2022-08-14T02:28:23.427Z,19.63
2022-08-14T02:28:25.235Z,19.66
2022-08-14T02:29:05.108Z,19.62
2022-08-14T02:30:05.159Z,19.57
2022-08-14T02:31:05.211Z,19.55
2022-08-14T02:32:05.190Z,19.53
2022-08-14T02:33:05.200Z,19.52
2022-08-14T02:34:14.505Z,19.49
2022-08-14T02:35:05.280Z,19.48
2022-08-14T02:37:04.369Z,19.47
2022-08-14T02:37:06.927Z,19.47
2022-08-14T02:38:05.360Z,19.47
2022-08-14T02:39:05.402Z,19.45
2022-08-14T02:40:05.673Z,19.45
2022-08-14T02:41:08.969Z,19.45
2022-08-14T02:42:05.431Z,19.45
2022-08-14T02:43:07.854Z,19.42
2022-08-14T02:44:05.473Z,19.41
2022-08-14T02:45:05.503Z,19.38
2022-08-14T02:46:05.553Z,19.32
2022-08-14T02:47:07.105Z,19.30
2022-08-14T02:48:05.644Z,19.22
2022-08-14T02:49:06.373Z,19.16
2022-08-14T02:50:05.673Z,19.12
2022-08-14T02:51:05.687Z,19.11
2022-08-14T02:52:15.983Z,19.09
2022-08-14T02:53:05.793Z,19.11
2022-08-14T02:54:05.786Z,19.11
2022-08-14T02:55:05.846Z,19.12
2022-08-14T02:56:30.675Z,19.11
2022-08-14T02:57:15.981Z,19.11
2022-08-14T02:58:06.145Z,19.12
2022-08-14T02:59:05.937Z,19.15
2022-08-14T03:00:06.625Z,19.15
2022-08-14T03:01:06.054Z,19.12
2022-08-14T03:02:06.081Z,19.12
2022-08-14T03:03:07.792Z,19.15
2022-08-14T03:04:06.099Z,19.12
2022-08-14T03:05:06.161Z,19.11
2022-08-14T03:06:06.223Z,19.09
2022-08-14T03:07:08.223Z,19.09
2022-08-14T03:08:06.271Z,19.09
2022-08-14T03:09:06.323Z,19.07
2022-08-14T03:10:25.712Z,19.05
2022-08-14T03:11:06.402Z,19.00
2022-08-14T03:12:06.398Z,18.94
2022-08-14T03:13:06.435Z,18.91
2022-08-14T03:14:06.468Z,18.86
2022-08-14T03:15:06.473Z,18.79
2022-08-14T03:16:08.999Z,18.74
2022-08-14T03:17:06.465Z,18.73
2022-08-14T03:18:06.515Z,18.74
2022-08-14T03:19:06.565Z,18.73
2022-08-14T03:20:06.624Z,18.68
2022-08-14T03:21:06.626Z,18.70
2022-08-14T03:22:09.371Z,18.70
2022-08-14T03:23:06.696Z,18.73
2022-08-14T03:24:06.746Z,18.73
2022-08-14T03:25:06.786Z,18.76
2022-08-14T03:26:06.825Z,18.76
2022-08-14T03:27:06.889Z,18.79
2022-08-14T03:28:06.938Z,18.79
2022-08-14T03:29:07.008Z,18.81
2022-08-14T03:30:07.048Z,18.79
2022-08-14T03:31:08.311Z,18.82
2022-08-14T03:32:07.129Z,18.83
2022-08-14T03:33:07.177Z,18.83
2022-08-14T03:34:10.050Z,18.83
2022-08-14T03:35:08.842Z,18.83
2022-08-14T03:37:28.758Z,18.85
2022-08-14T03:37:39.284Z,18.85
2022-08-14T03:39:12.969Z,18.83
2022-08-14T03:39:14.959Z,18.82
2022-08-14T03:40:07.544Z,18.82
2022-08-14T03:41:07.491Z,18.82
2022-08-14T03:42:19.310Z,18.81
2022-08-14T03:43:07.532Z,18.81
2022-08-14T03:45:25.271Z,18.76
2022-08-14T03:45:27.808Z,18.73
2022-08-14T03:46:09.974Z,18.68
2022-08-14T03:47:08.186Z,18.63
2022-08-14T03:48:11.042Z,18.60
2022-08-14T03:49:07.824Z,18.60
2022-08-14T03:50:07.887Z,18.60
2022-08-14T03:51:08.573Z,18.58
2022-08-14T03:52:18.211Z,18.57
2022-08-14T03:53:08.047Z,18.55
2022-08-14T03:54:08.028Z,18.51
2022-08-14T03:55:08.039Z,18.48
2022-08-14T03:56:08.084Z,18.43
2022-08-14T03:57:08.078Z,18.41
2022-08-14T03:58:08.108Z,18.34
2022-08-14T03:59:08.159Z,18.28
2022-08-14T04:00:08.178Z,18.24
2022-08-14T04:01:08.256Z,18.19
2022-08-14T04:02:31.952Z,18.15
2022-08-14T04:03:08.239Z,18.11
2022-08-14T04:04:08.299Z,18.12
2022-08-14T04:05:12.096Z,18.11
2022-08-14T04:06:08.400Z,18.08
2022-08-14T04:07:08.381Z,18.06
2022-08-14T04:08:23.150Z,18.08
2022-08-14T04:09:08.462Z,18.06
2022-08-14T04:10:08.529Z,18.03
2022-08-14T04:11:10.311Z,18.02
2022-08-14T04:12:08.573Z,18.03
2022-08-14T04:13:08.633Z,18.02
2022-08-14T04:14:08.613Z,17.98
2022-08-14T04:15:08.614Z,18.02
2022-08-14T04:16:12.515Z,18.00
2022-08-14T04:17:10.100Z,17.98
2022-08-14T04:18:08.743Z,17.98
2022-08-14T04:19:08.828Z,17.98
2022-08-14T04:20:09.917Z,17.98
2022-08-14T04:21:08.905Z,17.97
2022-08-14T04:22:08.935Z,17.94
2022-08-14T04:23:08.975Z,17.90
2022-08-14T04:24:09.025Z,17.88
2022-08-14T04:25:09.078Z,17.88
2022-08-14T04:26:14.422Z,17.88
2022-08-14T04:27:09.453Z,17.88
2022-08-14T04:28:09.177Z,17.87
2022-08-14T04:29:15.368Z,17.88
2022-08-14T04:30:09.208Z,17.90
2022-08-14T04:31:09.248Z,17.90
2022-08-14T04:33:10.487Z,17.93
2022-08-14T04:33:18.457Z,18.00
2022-08-14T04:34:11.892Z,18.08
2022-08-14T04:35:10.672Z,18.16
2022-08-14T04:36:09.371Z,18.21
2022-08-14T04:37:09.401Z,18.31
2022-08-14T04:38:36.975Z,18.37
2022-08-14T04:39:09.513Z,18.45
2022-08-14T04:40:09.501Z,18.51
2022-08-14T04:41:09.551Z,18.58
2022-08-14T04:42:14.053Z,18.61
2022-08-14T04:43:14.291Z,18.63
2022-08-14T04:44:09.643Z,18.67
2022-08-14T04:45:09.663Z,18.70
2022-08-14T04:46:09.716Z,18.76
2022-08-14T04:47:09.787Z,18.81
2022-08-14T04:48:10.365Z,18.85
2022-08-14T04:49:09.844Z,18.88
2022-08-14T04:50:09.854Z,18.92
2022-08-14T04:51:09.875Z,18.96
2022-08-14T04:52:19.006Z,19.00
2022-08-14T04:53:10.054Z,18.97
2022-08-14T04:54:09.946Z,18.97
2022-08-14T04:55:09.977Z,19.00
2022-08-14T04:56:30.006Z,18.98
2022-08-14T04:57:10.086Z,18.98
2022-08-14T04:58:21.576Z,18.97
2022-08-14T04:59:11.138Z,18.98
2022-08-14T05:00:16.189Z,18.98
2022-08-14T05:01:12.971Z,18.96
2022-08-14T05:02:10.236Z,18.94
2022-08-14T05:03:10.220Z,18.88
2022-08-14T05:04:14.695Z,18.85
2022-08-14T05:05:10.405Z,18.82
2022-08-14T05:06:37.082Z,18.79
2022-08-14T05:07:10.474Z,18.79
2022-08-14T05:08:10.323Z,18.81
2022-08-14T05:09:14.173Z,18.82
2022-08-14T05:10:12.709Z,18.85
2022-08-14T05:11:11.918Z,18.83
2022-08-14T05:13:11.173Z,18.86
2022-08-14T05:13:12.867Z,18.88
2022-08-14T05:14:16.816Z,18.89
2022-08-14T05:15:11.846Z,18.94
2022-08-14T05:16:10.517Z,19.01
2022-08-14T05:17:10.569Z,19.07
2022-08-14T05:18:17.222Z,19.11
2022-08-14T05:19:17.947Z,19.17
2022-08-14T05:21:54.069Z,19.20
2022-08-14T05:21:57.330Z,19.29
2022-08-14T05:22:16.515Z,19.42
2022-08-14T05:23:11.069Z,19.77
2022-08-14T05:24:17.781Z,20.36
2022-08-14T05:25:10.819Z,21.04
2022-08-14T05:26:10.674Z,21.62
2022-08-14T05:27:11.518Z,22.21
2022-08-14T05:28:16.218Z,22.73
2022-08-14T05:29:11.599Z,23.13
2022-08-14T05:30:10.660Z,23.48
2022-08-14T05:31:10.715Z,23.85
2022-08-14T05:32:10.752Z,24.00
2022-08-14T05:33:10.801Z,24.06
2022-08-14T05:34:10.853Z,24.10
2022-08-14T05:35:11.190Z,24.18
2022-08-14T05:36:16.614Z,24.25
2022-08-14T05:37:11.023Z,24.29
2022-08-14T05:38:30.753Z,24.37
2022-08-14T05:39:11.045Z,24.65
2022-08-14T05:40:11.123Z,24.84
2022-08-14T05:41:11.083Z,25.06
2022-08-14T05:42:22.327Z,25.16
2022-08-14T05:43:11.917Z,24.92
2022-08-14T05:44:11.207Z,24.97
2022-08-14T05:45:13.654Z,24.97
2022-08-14T05:46:11.237Z,24.96
2022-08-14T05:47:11.258Z,24.96
2022-08-14T05:48:11.319Z,24.99
2022-08-14T05:49:11.399Z,24.93
2022-08-14T05:50:18.658Z,25.15
2022-08-14T05:51:11.440Z,25.15
2022-08-14T05:52:11.451Z,25.15
2022-08-14T05:53:11.511Z,25.12
2022-08-14T05:54:20.641Z,25.34
2022-08-14T05:55:11.585Z,25.56
2022-08-14T05:56:13.314Z,25.68
2022-08-14T05:57:11.617Z,25.61
2022-08-14T05:58:11.663Z,25.71
2022-08-14T05:59:11.714Z,25.59
2022-08-14T06:00:11.856Z,25.62
2022-08-14T06:01:11.939Z,25.58
2022-08-14T06:02:12.664Z,25.46
2022-08-14T06:03:11.860Z,25.62
2022-08-14T06:04:11.906Z,25.96
2022-08-14T06:05:11.957Z,26.44
2022-08-14T06:06:12.060Z,26.63
2022-08-14T06:07:11.987Z,26.89
2022-08-14T06:08:31.255Z,27.15
2022-08-14T06:09:12.070Z,27.37
2022-08-14T06:10:12.129Z,27.37
2022-08-14T06:11:20.035Z,27.45
2022-08-14T06:12:12.221Z,27.64
2022-08-14T06:13:12.171Z,27.82
2022-08-14T06:14:20.626Z,27.52
2022-08-14T06:15:12.273Z,27.20
2022-08-14T06:16:12.304Z,27.00
2022-08-14T06:17:25.604Z,26.92
2022-08-14T06:18:12.373Z,27.04
2022-08-14T06:19:18.225Z,26.88
2022-08-14T06:20:12.496Z,26.70
2022-08-14T06:21:13.529Z,26.79
2022-08-14T06:22:12.581Z,26.98
2022-08-14T06:23:12.585Z,27.04
2022-08-14T06:24:18.585Z,27.20
2022-08-14T06:25:12.693Z,27.57
2022-08-14T06:26:13.529Z,27.57
2022-08-14T06:27:12.833Z,27.67
2022-08-14T06:28:27.187Z,27.90
2022-08-14T06:29:12.829Z,27.95
2022-08-14T06:30:12.992Z,27.90
2022-08-14T06:31:13.764Z,28.00
2022-08-14T06:32:38.754Z,27.85
2022-08-14T06:33:12.990Z,27.75
2022-08-14T06:35:10.329Z,27.83
2022-08-14T06:35:13.590Z,27.91
2022-08-14T06:36:13.002Z,27.91
2022-08-14T06:37:13.173Z,28.13
2022-08-14T06:38:16.797Z,28.34
2022-08-14T06:39:13.085Z,28.80
2022-08-14T06:40:25.497Z,29.02
2022-08-14T06:41:13.175Z,29.24
2022-08-14T06:42:25.548Z,28.56
2022-08-14T06:43:15.297Z,27.79
2022-08-14T06:44:13.377Z,27.95
2022-08-14T06:45:14.179Z,28.33
2022-08-14T06:46:23.072Z,28.18
2022-08-14T06:47:13.420Z,28.25
2022-08-14T06:48:13.500Z,28.43
2022-08-14T06:49:13.499Z,28.84
2022-08-14T06:50:13.510Z,29.12
2022-08-14T06:51:13.529Z,29.31
2022-08-14T06:52:16.214Z,29.39
2022-08-14T06:53:13.650Z,29.61
2022-08-14T06:54:13.693Z,29.67
2022-08-14T06:55:13.692Z,29.62
2022-08-14T06:56:13.683Z,28.90
2022-08-14T06:57:14.031Z,28.47
2022-08-14T06:58:24.990Z,28.52
2022-08-14T06:59:19.662Z,28.60
2022-08-14T07:00:22.223Z,28.96
2022-08-14T07:01:14.666Z,29.07
2022-08-14T07:02:18.992Z,29.52
2022-08-14T07:03:13.816Z,29.67
2022-08-14T07:04:23.183Z,29.44
2022-08-14T07:05:16.942Z,28.80
2022-08-14T07:06:21.611Z,28.83
2022-08-14T07:07:14.918Z,29.03
2022-08-14T07:08:13.969Z,29.43
2022-08-14T07:09:19.825Z,29.10
2022-08-14T07:10:17.133Z,28.78
2022-08-14T07:11:14.151Z,28.30
2022-08-14T07:12:54.437Z,28.10
2022-08-14T07:13:14.223Z,28.33
2022-08-14T07:14:14.230Z,28.77
2022-08-14T07:15:14.232Z,28.90
2022-08-14T07:16:14.243Z,28.64
2022-08-14T07:17:14.273Z,28.80
2022-08-14T07:18:14.334Z,28.50
2022-08-14T07:19:14.324Z,28.86
2022-08-14T07:20:14.375Z,29.37
2022-08-14T07:21:14.346Z,29.34
2022-08-14T07:22:17.691Z,29.76
2022-08-14T07:23:20.111Z,29.64
2022-08-14T07:24:22.027Z,29.79
2022-08-14T07:25:14.468Z,29.84
2022-08-14T07:26:14.479Z,29.76
2022-08-14T07:27:14.530Z,29.84
2022-08-14T07:28:21.317Z,29.43
2022-08-14T07:29:14.650Z,29.07
2022-08-14T07:30:33.387Z,28.43
2022-08-14T07:31:16.463Z,28.38
2022-08-14T07:32:22.122Z,28.71
2022-08-14T07:33:14.821Z,29.02
2022-08-14T07:34:36.421Z,28.87
2022-08-14T07:35:14.843Z,28.82
2022-08-14T07:36:30.058Z,29.06
2022-08-14T07:37:14.940Z,29.39
2022-08-14T07:38:14.964Z,29.43
2022-08-14T07:39:14.955Z,29.13
2022-08-14T07:40:14.995Z,28.78
2022-08-14T07:41:16.571Z,28.68
2022-08-14T07:42:15.027Z,29.10
2022-08-14T07:43:15.077Z,28.70
2022-08-14T07:44:32.725Z,28.96
2022-08-14T07:45:15.130Z,28.86
2022-08-14T07:46:15.159Z,28.97
2022-08-14T07:47:15.190Z,28.82
2022-08-14T07:48:16.545Z,29.00
2022-08-14T07:49:18.142Z,28.80
2022-08-14T07:50:16.614Z,28.45
2022-08-14T07:51:15.408Z,28.50
2022-08-14T07:52:15.453Z,28.74
2022-08-14T07:53:15.482Z,28.67
2022-08-14T07:54:16.553Z,28.77
2022-08-14T07:55:15.534Z,29.15
2022-08-14T07:56:22.026Z,29.57
2022-08-14T07:57:22.380Z,29.12
2022-08-14T07:58:30.345Z,28.55
2022-08-14T07:59:15.626Z,28.45
2022-08-14T08:00:30.812Z,28.41
2022-08-14T08:01:15.697Z,28.74
2022-08-14T08:02:20.398Z,28.86
2022-08-14T08:03:16.249Z,28.87
2022-08-14T08:04:18.703Z,28.92
2022-08-14T08:05:15.888Z,29.15
2022-08-14T08:06:17.513Z,29.74
2022-08-14T08:07:16.016Z,29.90
2022-08-14T08:08:26.803Z,30.01
2022-08-14T08:09:17.089Z,29.65
2022-08-14T08:10:16.120Z,29.79
2022-08-14T08:11:16.142Z,29.94
2022-08-14T08:12:16.123Z,29.55
2022-08-14T08:13:16.144Z,29.49
2022-08-14T08:14:17.234Z,29.71
2022-08-14T08:15:16.204Z,29.74
2022-08-14T08:16:16.214Z,29.52
2022-08-14T08:17:16.245Z,29.84
2022-08-14T08:18:20.431Z,30.51
2022-08-14T08:19:16.304Z,30.81
2022-08-14T08:20:16.908Z,31.02
2022-08-14T08:21:16.417Z,30.85
2022-08-14T08:22:16.417Z,30.46
2022-08-14T08:23:20.580Z,30.81
2022-08-14T08:24:19.693Z,30.54
2022-08-14T08:25:17.795Z,30.44
2022-08-14T08:26:16.610Z,30.71
2022-08-14T08:27:16.800Z,31.02
2022-08-14T08:28:19.737Z,30.95
2022-08-14T08:29:16.711Z,30.69
2022-08-14T08:30:16.702Z,30.58
2022-08-14T08:31:16.731Z,30.31
2022-08-14T08:32:16.764Z,30.73
2022-08-14T08:33:16.772Z,30.65
2022-08-14T08:34:18.241Z,30.83
2022-08-14T08:35:16.823Z,30.61
2022-08-14T08:36:18.455Z,30.56
2022-08-14T08:37:16.822Z,30.80
2022-08-14T08:39:16.330Z,30.78
2022-08-14T08:39:22.501Z,31.35
2022-08-14T08:40:20.646Z,31.59
2022-08-14T08:41:16.967Z,31.70
2022-08-14T08:42:19.522Z,31.85
2022-08-14T08:43:16.987Z,32.04
2022-08-14T08:44:31.865Z,31.90
2022-08-14T08:45:17.480Z,31.55
2022-08-14T08:46:21.610Z,31.81
2022-08-14T08:47:17.142Z,32.34
2022-08-14T08:48:18.463Z,32.46
2022-08-14T08:49:17.212Z,32.41
2022-08-14T08:50:31.094Z,32.75
2022-08-14T08:51:17.313Z,32.91
2022-08-14T08:52:24.836Z,32.53
2022-08-14T08:53:17.355Z,32.11
2022-08-14T08:54:18.514Z,31.98
2022-08-14T08:55:17.390Z,32.60
2022-08-14T08:56:30.179Z,33.22
2022-08-14T08:57:18.446Z,32.79
2022-08-14T08:58:20.004Z,32.88
2022-08-14T08:59:17.476Z,32.97
2022-08-14T09:00:19.465Z,32.12
2022-08-14T09:01:17.581Z,31.35
2022-08-14T09:02:17.608Z,31.42
2022-08-14T09:03:17.699Z,31.47
2022-08-14T09:04:17.714Z,31.87
2022-08-14T09:05:17.748Z,32.17
2022-08-14T09:06:56.893Z,31.77
2022-08-14T09:07:17.800Z,31.67
2022-08-14T09:08:30.560Z,31.60
2022-08-14T09:09:17.832Z,31.59
2022-08-14T09:10:22.215Z,32.01
2022-08-14T09:11:19.486Z,32.02
2022-08-14T09:12:17.903Z,32.24
2022-08-14T09:13:17.954Z,32.66
2022-08-14T09:14:17.984Z,32.78
2022-08-14T09:15:17.987Z,32.63
2022-08-14T09:16:18.894Z,31.95
2022-08-14T09:17:18.046Z,32.20
2022-08-14T09:18:18.540Z,32.00
2022-08-14T09:19:18.117Z,32.23
2022-08-14T09:20:25.864Z,32.26
2022-08-14T09:21:18.176Z,32.48
2022-08-14T09:22:34.718Z,32.22
2022-08-14T09:23:18.298Z,32.08
2022-08-14T09:24:28.679Z,32.12
2022-08-14T09:25:19.820Z,32.82
2022-08-14T09:26:21.068Z,32.82
2022-08-14T09:27:22.305Z,33.09
2022-08-14T09:28:18.462Z,32.91
2022-08-14T09:29:22.964Z,32.44
2022-08-14T09:30:32.250Z,32.24
2022-08-14T09:31:18.581Z,32.29
2022-08-14T09:32:58.655Z,32.22
2022-08-14T09:33:22.583Z,32.64
2022-08-14T09:34:27.398Z,33.09
2022-08-14T09:35:18.756Z,33.66
2022-08-14T09:36:18.845Z,34.16
2022-08-14T09:37:18.895Z,33.63
2022-08-14T09:38:25.676Z,32.88
2022-08-14T09:39:23.201Z,33.03
2022-08-14T09:40:20.845Z,32.66
2022-08-14T09:41:19.120Z,32.38
2022-08-14T09:42:32.904Z,31.97
2022-08-14T09:43:20.096Z,31.77
2022-08-14T09:44:21.099Z,32.44
2022-08-14T09:45:19.151Z,32.37
2022-08-14T09:46:21.472Z,32.23
2022-08-14T09:47:19.195Z,32.66
2022-08-14T09:48:19.151Z,32.67
2022-08-14T09:49:19.165Z,32.73
2022-08-14T09:50:19.182Z,32.93
2022-08-14T09:51:19.193Z,32.73
2022-08-14T09:52:32.589Z,32.51
2022-08-14T09:53:19.204Z,32.85
2022-08-14T09:54:23.599Z,33.40
2022-08-14T09:55:19.262Z,33.61
2022-08-14T09:56:24.450Z,33.51
2022-08-14T09:57:19.306Z,33.23
2022-08-14T09:58:22.813Z,32.85
2022-08-14T09:59:19.367Z,32.56
2022-08-14T10:00:30.410Z,32.60
2022-08-14T10:01:19.487Z,32.95
2022-08-14T10:02:19.571Z,33.47
2022-08-14T10:03:19.539Z,34.00
2022-08-14T10:04:32.901Z,34.51
2022-08-14T10:05:19.630Z,34.07
2022-08-14T10:06:19.940Z,33.23
2022-08-14T10:07:19.682Z,33.03
2022-08-14T10:08:20.585Z,33.45
2022-08-14T10:09:19.772Z,33.87
2022-08-14T10:10:23.340Z,33.32
2022-08-14T10:11:23.065Z,32.46
2022-08-14T10:12:29.169Z,31.93
2022-08-14T10:13:19.946Z,32.07
2022-08-14T10:14:34.592Z,32.57
2022-08-14T10:15:20.026Z,32.83
2022-08-14T10:16:25.639Z,32.79
2022-08-14T10:17:20.026Z,32.45
2022-08-14T10:18:20.076Z,32.71
2022-08-14T10:19:20.441Z,32.95
2022-08-14T10:20:40.605Z,33.33
2022-08-14T10:21:20.208Z,33.23
2022-08-14T10:23:13.328Z,32.97
2022-08-14T10:23:20.367Z,32.93
2022-08-14T10:24:20.379Z,32.46
2022-08-14T10:25:22.566Z,32.45
2022-08-14T10:26:22.885Z,32.59
2022-08-14T10:27:20.461Z,32.59
2022-08-14T10:28:38.946Z,32.41
2022-08-14T10:29:23.512Z,32.39
2022-08-14T10:30:22.397Z,32.66
2022-08-14T10:31:25.337Z,33.09
2022-08-14T10:32:29.108Z,32.95
2022-08-14T10:33:20.645Z,32.59
2022-08-14T10:34:20.655Z,32.37
2022-08-14T10:35:23.069Z,32.31
2022-08-14T10:36:26.768Z,32.67
2022-08-14T10:37:23.627Z,33.08
2022-08-14T10:38:20.766Z,33.75
2022-08-14T10:39:20.847Z,33.51
2022-08-14T10:40:38.855Z,33.82
2022-08-14T10:41:20.867Z,33.72
2022-08-14T10:42:21.219Z,33.33
2022-08-14T10:43:23.082Z,32.54
2022-08-14T10:44:21.855Z,32.24
2022-08-14T10:45:20.996Z,31.41
2022-08-14T10:47:37.303Z,31.20
2022-08-14T10:47:40.744Z,31.57
2022-08-14T10:48:34.511Z,32.19
2022-08-14T10:49:21.031Z,32.41
2022-08-14T10:50:21.072Z,32.67
2022-08-14T10:51:21.093Z,32.54
2022-08-14T10:52:22.115Z,32.86
2022-08-14T10:53:21.154Z,32.75
2022-08-14T10:54:39.774Z,32.94
2022-08-14T10:55:21.215Z,33.48
2022-08-14T10:56:34.020Z,33.75
2022-08-14T10:57:21.291Z,34.04
2022-08-14T10:58:21.297Z,33.84
2022-08-14T10:59:21.297Z,33.82
2022-08-14T11:00:29.934Z,34.13
2022-08-14T11:01:21.378Z,34.11
2022-08-14T11:02:35.855Z,33.92
2022-08-14T11:03:26.675Z,33.05
2022-08-14T11:04:25.330Z,32.53
2022-08-14T11:05:21.418Z,32.31
2022-08-14T11:06:21.423Z,32.51
2022-08-14T11:07:21.624Z,32.68
2022-08-14T11:08:21.422Z,32.91
2022-08-14T11:09:21.423Z,33.36
2022-08-14T11:10:21.473Z,33.03
2022-08-14T11:11:21.463Z,32.71
2022-08-14T11:12:34.134Z,32.41
2022-08-14T11:13:23.818Z,32.05
2022-08-14T11:14:22.642Z,32.23
2022-08-14T11:15:21.517Z,32.78
2022-08-14T11:16:21.506Z,33.44
2022-08-14T11:17:21.895Z,33.44
2022-08-14T11:18:32.004Z,33.22
2022-08-14T11:19:21.621Z,33.16
2022-08-14T11:20:23.868Z,32.83
2022-08-14T11:21:21.659Z,32.44
2022-08-14T11:22:56.458Z,32.51
2022-08-14T11:23:21.660Z,32.41
2022-08-14T11:24:55.382Z,32.05
2022-08-14T11:25:21.730Z,31.55
2022-08-14T11:26:21.792Z,31.47
2022-08-14T11:27:25.743Z,31.87
2022-08-14T11:28:21.863Z,31.90
2022-08-14T11:29:21.895Z,32.29
2022-08-14T11:30:50.951Z,32.66
2022-08-14T11:31:22.410Z,33.19
2022-08-14T11:32:21.955Z,33.09
2022-08-14T11:34:47.920Z,31.87
2022-08-14T11:35:48.228Z,32.42
2022-08-14T11:37:09.604Z,32.01
2022-08-14T11:37:48.039Z,31.92
2022-08-14T11:38:48.255Z,32.22
2022-08-14T11:39:48.158Z,32.26
2022-08-14T11:40:48.179Z,32.19
2022-08-14T11:41:55.681Z,32.44
2022-08-14T11:42:57.236Z,33.26
2022-08-14T11:43:58.055Z,33.67
2022-08-14T11:44:48.246Z,33.73
2022-08-14T11:45:48.411Z,33.26
2022-08-14T11:46:48.297Z,32.82
2022-08-14T11:48:13.051Z,32.34
2022-08-14T11:49:02.853Z,32.22
2022-08-14T11:49:48.398Z,32.11
2022-08-14T11:50:48.448Z,32.81
2022-08-14T11:51:52.962Z,33.32
2022-08-14T11:52:50.801Z,33.60
2022-08-14T11:53:48.613Z,33.55
2022-08-14T11:54:48.560Z,33.73
2022-08-14T11:55:48.591Z,33.13
2022-08-14T11:56:48.678Z,33.13
2022-08-14T11:57:59.536Z,32.88
2022-08-14T11:58:48.720Z,32.79
2022-08-14T11:59:48.752Z,32.39
2022-08-14T12:00:48.768Z,32.16
2022-08-14T12:01:48.765Z,31.95
2022-08-14T12:03:02.640Z,31.63
2022-08-14T12:03:57.302Z,31.41
2022-08-14T12:04:48.919Z,31.39
2022-08-14T12:05:48.903Z,31.74
2022-08-14T12:06:49.284Z,31.90
2022-08-14T12:07:49.107Z,32.48
2022-08-14T12:08:52.690Z,33.01
2022-08-14T12:09:49.067Z,33.73
2022-08-14T12:10:49.068Z,34.31
2022-08-14T12:11:51.712Z,34.59
2022-08-14T12:12:49.389Z,34.58
2022-08-14T12:13:55.781Z,34.91
2022-08-14T12:14:49.210Z,35.12
2022-08-14T12:15:49.328Z,35.19
2022-08-14T12:16:49.304Z,35.07
2022-08-14T12:17:50.434Z,35.26
2022-08-14T12:18:49.293Z,34.78
2022-08-14T12:19:51.245Z,34.44
2022-08-14T12:20:52.890Z,34.59
2022-08-14T12:21:49.455Z,34.69
2022-08-14T12:22:52.361Z,34.89
2022-08-14T12:23:50.472Z,35.16
2022-08-14T12:24:49.495Z,34.70
2022-08-14T12:25:59.544Z,34.76
2022-08-14T12:26:49.659Z,34.91
2022-08-14T12:27:52.848Z,34.73
2022-08-14T12:28:59.769Z,34.73
2022-08-14T12:29:49.658Z,35.38
2022-08-14T12:30:53.450Z,35.45
2022-08-14T12:31:51.598Z,35.71
2022-08-14T12:32:49.732Z,35.63
2022-08-14T12:33:53.644Z,35.23
2022-08-14T12:34:49.760Z,35.30
2022-08-14T12:35:49.822Z,35.45
2022-08-14T12:36:49.805Z,35.07
2022-08-14T12:37:49.806Z,35.25
2022-08-14T12:38:49.852Z,34.50
2022-08-14T12:39:49.868Z,33.97
2022-08-14T12:40:49.863Z,34.10
2022-08-14T12:41:49.834Z,34.40
2022-08-14T12:42:53.713Z,34.91
2022-08-14T12:43:49.914Z,35.30
2022-08-14T12:44:49.934Z,35.22
2022-08-14T12:45:50.014Z,35.04
2022-08-14T12:46:49.997Z,35.08
2022-08-14T12:47:51.508Z,34.82
2022-08-14T12:48:50.325Z,34.43
2022-08-14T12:49:50.175Z,33.98
2022-08-14T12:50:50.129Z,33.84
2022-08-14T12:51:50.128Z,33.67
2022-08-14T12:52:58.703Z,32.91
2022-08-14T12:53:50.181Z,33.01